Terminal Aerodrome Forecast
Issued by NWS

Home | Current Version | Previous Version | Text Only | Print | Product List | Glossary On
Versions: 1 2 3 4 5 6 7 8 9 10 11 12 13
000
FTUS45 KPSR 160500
TAFIPL
TAF
KIPL 160520Z 1606/1706 14014KT P6SM FEW100 SCT250
     FM161200 15007KT P6SM FEW030 BKN120
     FM170100 18007KT P6SM VCSH BKN060 OVC120=

USA.gov is the U.S. government's official web portal to all federal, state and local government web resources and services.